Terminal Aerodrome Forecast
Issued by NWS Sioux Falls, SD

Home | Current Version | Previous Version | Graphics & Text | Print | Product List | Glossary On
Versions: 1 2 3 4 5 6 7 8 9 10 11 12 13 14 15 16 17 18 19 20 21
000
FTUS43 KFSD 191128
TAFHON
TAF
KHON 191128Z 1912/2012 18010KT P6SM OVC007
      TEMPO 1912/1914 5SM BR
     FM191800 16008KT P6SM BKN012 OVC025
     FM200100 17008KT P6SM BKN007 OVC015
     FM200600 18006KT 5SM BR OVC007=

USA.gov is the U.S. government's official web portal to all federal, state and local government web resources and services.